Weather at Limuru Airstrip

Public forecast

Using degrees Celsius for public forecast. Weather courtesy of forecast.io.

Closest aviation weather report (METAR) to Limuru Airstrip

Closest report is Nairobi Wilson Airport, 15.0 nm (27.7 km) SSE.

2022/12/04 05:00 (retrieved 57 minutes ago)

HKNW 040500Z 09012KT 5000 -RA BKN008 OVC018 17/16 Q1021

Closest aviation forecast (TAF) to Limuru Airstrip

Forecast is more than 6 hours old.

Closest forecast is Jomo Kenyatta International Airport, 19.2 nm (35.6 km) SE.

2022/12/03 18:54 (retrieved 11 hours ago)

TAF TAF HKJK 031700Z 0318/0424 04010KT 9999 FEW022 BECMG 0320/0323 CAVOK BECMG 0408/0411 06015KT 9999 FEW025CB BKN026 BECMG 0420/0423 04005KT CAVOK